EmailTwitter


Observations de surface / France / LFPO (07149)

Régions: Québec | Canada | États-Unis | Europe | France | UK | Ailleurs
Station
Affichage
Infos & localisation pour LFPO (07149) | Aide pour décoder les METARs

Observations prises le 2020-04-06 à 16H30 UTC à PARIS/ORLY, FR (LFPO)

Etat du ciel: couvert.

Température: 13.0 Celsius

Point de rosée: 11.0 Celsius

Humidité relative: 88%

Vents: Sud à 7 km/h ou 4 noeuds.

Pression au niveau moyen de la mer: 102.40 kilopascals.

Visibilité horizontale: 6.21 milles terrestres ou 9.94 kilomètres.

Hauteur du plafond: 274 mètres ( 900 pieds ).

Observation METAR:

LFPO 061630Z AUTO 19004KT 9999 OVC009 13/11 Q1024=